Time;durP1;ratioP1;P1;durP2;ratioP2;P2;SDS_P1;SDS_P2;PMS_P1;PMS_P2;Temp;Humidity;BMP_temperature;BMP_pressure;BME280_temperature;BME280_humidity;BME280_pressure;Samples;Min_cycle;Max_cycle;Signal;HPM_P1;HPM_P2
2023/12/08 00:00:45;;;;;;;4.00;2.30;;;;;;;18.23;37.05;100616.28;5047772;28;20140;-70
2023/12/08 00:03:11;;;;;;;4.53;2.10;;;;;;;18.27;37.39;100622.97;5048061;28;20112;-72
2023/12/08 00:05:36;;;;;;;6.30;2.55;;;;;;;18.18;37.23;100614.03;5047759;28;20108;-68
2023/12/08 00:08:02;;;;;;;3.90;2.13;;;;;;;18.17;37.27;100611.56;5047955;28;20075;-70
2023/12/08 00:10:27;;;;;;;5.47;2.60;;;;;;;18.16;37.28;100608.06;5048067;28;20055;-69
2023/12/08 00:12:52;;;;;;;3.90;2.00;;;;;;;18.21;37.02;100623.50;5047910;28;20468;-69
2023/12/08 00:15:17;;;;;;;4.32;2.28;;;;;;;18.21;37.35;100607.69;5047961;28;20321;-68
2023/12/08 00:17:43;;;;;;;5.13;2.58;;;;;;;18.21;37.06;100612.94;5047662;28;20029;-71
2023/12/08 00:20:09;;;;;;;4.32;2.10;;;;;;;18.10;37.19;100598.88;5047612;28;20029;-69
2023/12/08 00:22:34;;;;;;;4.70;2.55;;;;;;;18.18;36.76;100613.22;5047751;28;20029;-70
2023/12/08 00:24:59;;;;;;;4.90;2.47;;;;;;;18.09;36.97;100601.66;5047806;28;20136;-71
2023/12/08 00:27:25;;;;;;;4.45;2.60;;;;;;;18.13;36.76;100611.81;5046091;28;20047;-69
2023/12/08 00:29:50;;;;;;;5.13;2.83;;;;;;;18.12;36.77;100614.56;5046710;28;20513;-69
2023/12/08 00:32:16;;;;;;;3.92;2.22;;;;;;;18.12;36.72;100601.41;5047720;28;20274;-70
2023/12/08 00:34:41;;;;;;;4.07;2.20;;;;;;;18.10;36.79;100598.88;5047907;28;20037;-69
2023/12/08 00:37:08;;;;;;;4.60;2.60;;;;;;;18.00;36.66;100583.97;5047549;28;20399;-71
2023/12/08 00:39:33;;;;;;;4.53;2.85;;;;;;;17.98;36.59;100578.00;5047842;28;20040;-68
2023/12/08 00:41:58;;;;;;;4.65;2.63;;;;;;;18.06;36.77;100600.09;5047589;28;20033;-70
2023/12/08 00:44:24;;;;;;;5.20;2.60;;;;;;;17.95;36.41;100577.28;5047204;28;20033;-69
2023/12/08 00:46:49;;;;;;;4.97;2.72;;;;;;;18.03;36.33;100592.44;5046707;28;20076;-69
2023/12/08 00:49:14;;;;;;;5.72;2.67;;;;;;;17.93;36.30;100581.84;5047396;28;20454;-70
2023/12/08 00:51:40;;;;;;;4.50;2.58;;;;;;;17.97;36.41;100581.59;5047051;28;20032;-71
2023/12/08 00:54:05;;;;;;;5.28;2.63;;;;;;;17.95;36.45;100585.19;5047034;28;20037;-69
2023/12/08 00:56:30;;;;;;;4.80;2.58;;;;;;;17.88;36.61;100570.00;5046503;28;20124;-69
2023/12/08 00:58:56;;;;;;;4.68;2.67;;;;;;;17.88;36.18;100570.00;5047134;28;20021;-70
2023/12/08 01:01:21;;;;;;;5.30;3.00;;;;;;;17.86;36.47;100558.72;5047277;28;20064;-69
2023/12/08 01:03:47;;;;;;;5.25;2.75;;;;;;;17.94;36.24;100582.69;5047136;28;20442;-70
2023/12/08 01:06:12;;;;;;;5.00;2.85;;;;;;;17.87;36.11;100561.25;5047188;28;20029;-69
2023/12/08 01:08:37;;;;;;;5.40;2.75;;;;;;;17.93;36.10;100573.13;5047110;28;20036;-70
2023/12/08 01:11:03;;;;;;;4.82;2.95;;;;;;;17.81;36.08;100551.22;5047126;28;20112;-69
2023/12/08 01:13:28;;;;;;;4.75;2.88;;;;;;;17.81;36.25;100545.13;5046589;28;20025;-70
2023/12/08 01:15:54;;;;;;;4.43;2.60;;;;;;;17.89;36.35;100559.34;5045364;28;20385;-70
2023/12/08 01:18:19;;;;;;;5.05;2.50;;;;;;;17.90;36.23;100554.91;5046384;28;20034;-71
2023/12/08 01:20:44;;;;;;;4.43;2.40;;;;;;;17.87;36.55;100553.31;5045079;28;20385;-68
2023/12/08 01:23:10;;;;;;;4.40;2.50;;;;;;;17.89;36.27;100550.59;5046601;28;20036;-69
2023/12/08 01:25:35;;;;;;;4.55;2.30;;;;;;;17.85;36.20;100541.22;5046661;28;20115;-71
2023/12/08 01:28:00;;;;;;;4.60;2.65;;;;;;;17.83;36.34;100541.38;5046708;28;20028;-68
2023/12/08 01:30:25;;;;;;;4.40;2.33;;;;;;;17.87;36.48;100549.88;5045164;28;20442;-70
2023/12/08 01:32:51;;;;;;;4.85;2.35;;;;;;;17.86;36.27;100541.09;5046011;28;20036;-69
2023/12/08 01:35:16;;;;;;;4.95;2.70;;;;;;;17.77;36.36;100524.28;5046509;28;20037;-70
2023/12/08 01:37:41;;;;;;;4.35;2.40;;;;;;;17.85;35.91;100546.50;5046833;28;20037;-69
2023/12/08 01:40:07;;;;;;;4.53;2.70;;;;;;;17.82;36.14;100537.06;5046604;28;20040;-68
2023/12/08 01:42:33;;;;;;;5.03;2.55;;;;;;;17.76;36.38;100527.88;5046598;28;20048;-70
2023/12/08 01:44:58;;;;;;;4.00;2.25;;;;;;;17.82;36.36;100537.06;5046309;28;20443;-69
2023/12/08 01:47:23;;;;;;;4.82;2.70;;;;;;;17.81;36.14;100530.13;5046662;28;20072;-68
2023/12/08 01:49:50;;;;;;;4.45;2.38;;;;;;;17.73;36.25;100514.94;5046017;28;20029;-68
2023/12/08 01:52:22;;;;;;;4.93;2.40;;;;;;;17.81;36.13;100527.50;5046263;28;20095;-69
2023/12/08 01:54:53;;;;;;;5.28;2.80;;;;;;;17.80;36.29;100528.47;5046461;28;20029;-71
2023/12/08 01:57:19;;;;;;;4.28;2.50;;;;;;;17.78;35.89;100525.09;5046468;28;20029;-70
2023/12/08 01:59:46;;;;;;;4.30;2.35;;;;;;;17.71;36.12;100508.16;5046488;28;20465;-69
2023/12/08 02:02:12;;;;;;;4.32;2.13;;;;;;;17.76;35.98;100525.25;5046526;28;20029;-68
2023/12/08 02:04:42;;;;;;;4.82;2.45;;;;;;;17.76;36.04;100527.03;5046683;28;20029;-68
2023/12/08 02:07:09;;;;;;;4.40;2.70;;;;;;;17.76;35.83;100517.31;5046573;28;20036;-68
2023/12/08 02:09:34;;;;;;;4.00;2.40;;;;;;;17.65;36.22;100506.88;5046379;28;20029;-69
2023/12/08 02:11:59;;;;;;;4.60;2.55;;;;;;;17.68;35.92;100497.88;5046638;28;20528;-70
2023/12/08 02:14:26;;;;;;;4.85;2.60;;;;;;;17.65;36.14;100483.16;5046119;28;20044;-69
2023/12/08 02:16:55;;;;;;;4.38;2.50;;;;;;;17.71;36.02;100495.81;5046284;28;20029;-69
2023/12/08 02:19:21;;;;;;;4.90;2.60;;;;;;;17.70;35.99;100495.94;5046214;28;20131;-69
2023/12/08 02:21:47;;;;;;;4.82;2.30;;;;;;;17.72;36.25;100486.94;5046165;28;20079;-70
2023/12/08 02:24:12;;;;;;;4.30;2.50;;;;;;;17.70;36.28;100480.13;5046092;28;20037;-70
2023/12/08 02:26:38;;;;;;;4.50;2.70;;;;;;;17.63;35.86;100471.91;5046220;28;20029;-69
2023/12/08 02:29:08;;;;;;;4.30;2.40;;;;;;;17.66;35.84;100476.91;5045862;28;20036;-70
2023/12/08 02:31:40;;;;;;;4.85;2.55;;;;;;;17.67;36.02;100478.56;5046295;28;20037;-69
2023/12/08 02:34:06;;;;;;;5.00;2.90;;;;;;;17.68;35.75;100489.97;5046450;28;20477;-70
2023/12/08 02:36:33;;;;;;;4.68;2.72;;;;;;;17.59;35.90;100484.53;5046195;28;20068;-69
2023/12/08 02:39:00;;;;;;;4.30;2.40;;;;;;;17.67;36.15;100493.56;5046215;28;20079;-67
2023/12/08 02:41:26;;;;;;;4.68;2.58;;;;;;;17.56;35.81;100468.09;5046565;28;21266;-70
2023/12/08 02:43:51;;;;;;;4.88;2.60;;;;;;;17.64;36.10;100481.50;5047012;28;20073;-70
2023/12/08 02:46:16;;;;;;;4.72;2.45;;;;;;;17.55;35.81;100475.19;5049884;28;20424;-68
2023/12/08 02:48:42;;;;;;;5.43;2.70;;;;;;;17.58;35.92;100479.38;5050127;28;20033;-69
2023/12/08 02:51:07;;;;;;;4.78;2.45;;;;;;;17.62;36.05;100480.78;5049834;28;20021;-68
2023/12/08 02:53:33;;;;;;;4.50;2.47;;;;;;;17.58;35.80;100477.56;5049747;28;20456;-69
2023/12/08 02:55:58;;;;;;;4.15;2.30;;;;;;;17.54;36.08;100473.50;5049700;28;20030;-68
2023/12/08 02:58:23;;;;;;;5.53;2.63;;;;;;;17.49;35.85;100478.34;5049841;28;20050;-69
2023/12/08 03:00:48;;;;;;;5.13;2.90;;;;;;;17.53;35.79;100484.19;5049264;28;20078;-68
2023/12/08 03:03:14;;;;;;;5.00;2.40;;;;;;;17.54;36.11;100486.69;5049519;28;20496;-69
2023/12/08 03:05:39;;;;;;;4.85;2.58;;;;;;;17.57;35.89;100486.44;5049726;28;20123;-69
2023/12/08 03:08:04;;;;;;;4.43;2.30;;;;;;;17.49;36.10;100477.50;5049462;28;20490;-69
2023/12/08 03:10:29;;;;;;;4.70;2.80;;;;;;;17.56;36.01;100494.47;5049696;28;20122;-69
2023/12/08 03:12:55;;;;;;;4.90;2.60;;;;;;;17.55;35.94;100498.06;5049310;28;20473;-69
2023/12/08 03:15:20;;;;;;;4.20;2.42;;;;;;;17.53;35.84;100492.94;5049042;28;20412;-68
2023/12/08 03:17:45;;;;;;;4.43;2.55;;;;;;;17.44;35.95;100477.06;5049556;28;20600;-68
2023/12/08 03:20:11;;;;;;;4.30;2.33;;;;;;;17.51;36.04;100489.56;5049130;28;20041;-69
2023/12/08 03:22:36;;;;;;;4.40;2.47;;;;;;;17.51;35.91;100484.31;5049009;28;20474;-69
2023/12/08 03:25:01;;;;;;;4.20;2.40;;;;;;;17.51;35.77;100483.47;5049058;28;20029;-68
2023/12/08 03:27:27;;;;;;;4.15;2.45;;;;;;;17.46;36.10;100467.22;5049070;28;20641;-68
2023/12/08 03:29:52;;;;;;;4.30;2.57;;;;;;;17.45;35.88;100470.81;5045938;28;20036;-69
2023/12/08 03:32:17;;;;;;;4.53;2.60;;;;;;;17.45;35.93;100465.56;5047344;28;20262;-70
2023/12/08 03:34:42;;;;;;;4.97;2.65;;;;;;;17.43;36.12;100467.50;5048504;28;20115;-69
2023/12/08 03:37:08;;;;;;;4.40;2.17;;;;;;;17.48;36.06;100481.97;5048110;28;20035;-70
2023/12/08 03:39:33;;;;;;;4.25;2.20;;;;;;;17.49;35.98;100490.69;5048351;28;20029;-70
2023/12/08 03:41:58;;;;;;;4.80;2.58;;;;;;;17.32;36.18;100457.84;5048364;28;20060;-69
2023/12/08 03:44:24;;;;;;;4.88;2.55;;;;;;;17.46;36.13;100478.59;5048698;28;20021;-69
2023/12/08 03:46:49;;;;;;;4.55;2.50;;;;;;;17.44;35.93;100479.72;5048525;28;20041;-70
2023/12/08 03:49:14;;;;;;;3.90;2.28;;;;;;;17.39;36.24;100475.66;5048777;28;20108;-71
2023/12/08 03:51:39;;;;;;;5.25;2.53;;;;;;;17.35;36.15;100462.84;5048771;28;20025;-68
2023/12/08 03:54:05;;;;;;;4.30;2.17;;;;;;;17.45;36.12;100471.69;5048259;28;20120;-71
2023/12/08 03:56:30;;;;;;;4.25;2.25;;;;;;;17.28;35.95;100449.38;5048351;28;20282;-69
2023/12/08 03:58:55;;;;;;;4.88;2.42;;;;;;;17.44;36.30;100470.00;5048313;28;20461;-70
2023/12/08 04:01:20;;;;;;;4.60;2.50;;;;;;;17.43;35.72;100465.69;5047984;28;20025;-69
2023/12/08 04:03:46;;;;;;;5.28;2.30;;;;;;;17.32;36.08;100437.63;5047710;28;20752;-70
2023/12/08 04:06:12;;;;;;;4.93;2.20;;;;;;;17.32;36.19;100431.50;5047914;28;20033;-70
2023/12/08 04:08:37;;;;;;;4.20;2.22;;;;;;;17.33;36.16;100434.00;5048084;28;20036;-70
2023/12/08 04:11:03;;;;;;;4.57;2.42;;;;;;;17.38;36.24;100441.53;5047913;28;20377;-69
2023/12/08 04:13:28;;;;;;;4.35;2.38;;;;;;;17.31;36.07;100420.16;5048079;28;20036;-69
2023/12/08 04:15:53;;;;;;;4.20;2.58;;;;;;;17.36;35.98;100431.13;5047400;28;20044;-69
2023/12/08 04:18:18;;;;;;;4.60;2.40;;;;;;;17.31;36.15;100427.22;5047987;28;20029;-70
2023/12/08 04:20:44;;;;;;;4.43;2.40;;;;;;;17.32;36.11;100420.97;5047832;28;21749;-71
2023/12/08 04:23:09;;;;;;;3.92;2.13;;;;;;;17.27;36.22;100439.78;5047783;28;20032;-70
2023/12/08 04:25:34;;;;;;;4.45;2.30;;;;;;;17.35;36.03;100457.59;5047708;28;20028;-69
2023/12/08 04:28:00;;;;;;;3.90;2.20;;;;;;;17.27;36.22;100428.44;5047681;28;20110;-70
2023/12/08 04:30:25;;;;;;;5.03;2.70;;;;;;;17.37;35.90;100455.66;5046608;28;20278;-68
2023/12/08 04:32:51;;;;;;;4.25;2.30;;;;;;;17.27;36.02;100438.97;5047764;28;20037;-69
2023/12/08 04:35:16;;;;;;;4.10;2.47;;;;;;;17.34;35.97;100462.03;5047024;28;20402;-71
2023/12/08 04:37:41;;;;;;;4.20;2.53;;;;;;;17.26;36.20;100437.28;5047147;28;20667;-70
2023/12/08 04:40:07;;;;;;;5.10;2.83;;;;;;;17.23;36.24;100430.50;5047536;28;20033;-70
2023/12/08 04:42:34;;;;;;;4.20;2.38;;;;;;;17.33;36.04;100441.91;5047460;28;20032;-69
2023/12/08 04:44:59;;;;;;;4.50;2.42;;;;;;;17.32;35.91;100439.41;5047106;28;20041;-69
2023/12/08 04:47:24;;;;;;;4.28;2.10;;;;;;;17.32;36.37;100448.16;5047329;28;20031;-70
2023/12/08 04:49:50;;;;;;;4.78;2.50;;;;;;;17.31;36.27;100454.38;5047621;28;20036;-69
2023/12/08 04:52:15;;;;;;;4.20;2.50;;;;;;;17.22;36.10;100439.34;5047430;28;20032;-70
2023/12/08 04:54:40;;;;;;;4.50;2.35;;;;;;;17.31;35.85;100448.28;5047347;28;20035;-69
2023/12/08 04:57:05;;;;;;;4.78;2.58;;;;;;;17.21;36.12;100432.41;5047310;28;20037;-68
2023/12/08 04:59:31;;;;;;;3.75;2.13;;;;;;;17.29;36.12;100450.19;5045457;28;20076;-69
2023/12/08 05:01:56;;;;;;;4.00;2.10;;;;;;;17.28;35.93;100445.91;5046874;28;20033;-70
2023/12/08 05:04:22;;;;;;;4.47;2.33;;;;;;;17.21;36.33;100435.88;5045869;28;20072;-68
2023/12/08 05:06:48;;;;;;;4.00;2.13;;;;;;;17.26;36.22;100432.03;5045243;28;20029;-69
2023/12/08 05:09:13;;;;;;;4.40;2.40;;;;;;;17.26;36.06;100430.25;5046791;28;20444;-70
2023/12/08 05:11:39;;;;;;;4.88;2.80;;;;;;;17.27;36.20;100429.25;5047049;28;20031;-68
2023/12/08 05:14:04;;;;;;;4.28;2.47;;;;;;;17.21;36.29;100416.59;5046915;28;20108;-70
2023/12/08 05:16:30;;;;;;;3.85;2.28;;;;;;;17.26;35.89;100422.34;5046861;28;20040;-68
2023/12/08 05:18:55;;;;;;;4.18;2.00;;;;;;;17.22;36.00;100420.91;5046725;28;20029;-70
2023/12/08 05:21:21;;;;;;;4.70;2.38;;;;;;;17.15;36.12;100404.81;5046233;28;20056;-68
2023/12/08 05:23:46;;;;;;;4.38;2.40;;;;;;;17.16;36.17;100397.72;5047385;28;20036;-70
2023/12/08 05:26:12;;;;;;;4.07;2.30;;;;;;;17.24;36.29;100424.25;5046896;28;20044;-68
2023/12/08 05:28:37;;;;;;;5.28;2.47;;;;;;;17.15;36.20;100406.59;5046941;28;20374;-69
2023/12/08 05:31:04;;;;;;;4.18;2.30;;;;;;;17.16;36.33;100413.53;5045202;28;20083;-69
2023/12/08 05:33:29;;;;;;;3.80;2.35;;;;;;;17.24;36.29;100432.16;5046767;28;20037;-69
2023/12/08 05:35:55;;;;;;;4.07;2.10;;;;;;;17.14;36.37;100421.56;5046784;28;20445;-69
2023/12/08 05:38:21;;;;;;;4.13;2.10;;;;;;;17.25;36.20;100441.72;5046528;28;20112;-68
2023/12/08 05:40:46;;;;;;;4.57;2.00;;;;;;;17.18;36.65;100422.13;5046905;28;20029;-70
2023/12/08 05:43:11;;;;;;;3.38;1.77;;;;;;;17.27;36.63;100441.59;5046659;28;20119;-69
2023/12/08 05:45:36;;;;;;;3.08;1.65;;;;;;;17.32;36.87;100444.69;5044757;28;20486;-68
2023/12/08 05:48:02;;;;;;;3.90;1.70;;;;;;;17.33;36.73;100452.44;5046486;28;20087;-69
2023/12/08 05:50:27;;;;;;;2.90;1.45;;;;;;;17.39;36.79;100446.66;5045943;28;20473;-69
2023/12/08 05:52:52;;;;;;;3.05;1.33;;;;;;;17.34;36.92;100438.31;5046323;28;20029;-70
2023/12/08 05:55:18;;;;;;;3.30;1.60;;;;;;;17.47;36.65;100447.84;5046345;28;20040;-69
2023/12/08 05:57:43;;;;;;;2.85;1.30;;;;;;;17.45;36.54;100444.47;5044196;28;20036;-69
2023/12/08 06:00:10;;;;;;;3.03;1.40;;;;;;;17.54;36.86;100441.06;5046176;28;20458;-69
2023/12/08 06:02:35;;;;;;;2.97;1.40;;;;;;;17.52;36.44;100435.09;5044470;28;20375;-68
2023/12/08 06:05:01;;;;;;;2.97;1.30;;;;;;;17.58;36.75;100440.69;5045738;28;20059;-70
2023/12/08 06:07:26;;;;;;;2.40;1.30;;;;;;;17.57;36.39;100440.81;5045975;28;20439;-69
2023/12/08 06:09:51;;;;;;;2.55;1.30;;;;;;;17.61;36.24;100447.50;5046391;28;20133;-68
2023/12/08 06:12:17;;;;;;;3.28;1.60;;;;;;;17.59;36.61;100438.88;5046146;28;20044;-69
2023/12/08 06:14:42;;;;;;;2.70;1.23;;;;;;;17.58;36.43;100429.31;5046138;28;20124;-70
2023/12/08 06:17:07;;;;;;;2.55;1.10;;;;;;;17.66;36.30;100444.47;5046236;28;20033;-69
2023/12/08 06:19:33;;;;;;;2.78;1.30;;;;;;;17.61;36.63;100431.69;5049558;28;20033;-69
2023/12/08 06:21:58;;;;;;;3.03;1.40;;;;;;;17.70;36.42;100454.59;5050318;28;20036;-70
2023/12/08 06:24:23;;;;;;;2.58;1.30;;;;;;;17.68;36.58;100446.00;5048785;28;20056;-71
2023/12/08 06:26:49;;;;;;;3.78;1.80;;;;;;;17.74;36.31;100453.38;5050058;28;20163;-70
2023/12/08 06:29:14;;;;;;;2.67;1.33;;;;;;;17.74;36.53;100455.19;5049430;28;20056;-68
2023/12/08 06:31:39;;;;;;;3.30;1.50;;;;;;;17.76;36.54;100456.72;5049906;28;20033;-71
2023/12/08 06:34:05;;;;;;;2.78;1.48;;;;;;;17.70;36.30;100449.31;5050259;28;20029;-70
2023/12/08 06:36:30;;;;;;;3.38;1.70;;;;;;;17.73;36.33;100442.97;5049880;28;20484;-69
2023/12/08 06:38:55;;;;;;;2.78;1.30;;;;;;;17.75;36.34;100439.25;5050079;28;20028;-68
2023/12/08 06:41:21;;;;;;;2.97;1.37;;;;;;;17.81;36.50;100447.59;5049717;28;20025;-69
2023/12/08 06:43:47;;;;;;;2.67;1.27;;;;;;;17.80;36.35;100459.94;5050243;28;20803;-68
2023/12/08 06:46:13;;;;;;;3.03;1.33;;;;;;;17.81;36.19;100460.75;5049641;28;20045;-70
2023/12/08 06:48:38;;;;;;;3.03;1.33;;;;;;;17.89;36.29;100471.50;5048730;28;20036;-69
2023/12/08 06:51:04;;;;;;;3.22;1.67;;;;;;;17.90;36.20;100468.75;5049698;28;20107;-69
2023/12/08 06:53:29;;;;;;;2.47;1.23;;;;;;;17.92;36.40;100479.16;5050076;28;20025;-70
2023/12/08 06:55:54;;;;;;;3.20;1.30;;;;;;;17.94;36.09;100474.56;5049409;28;20088;-69
2023/12/08 06:58:19;;;;;;;2.90;1.23;;;;;;;17.90;36.23;100474.00;5050094;28;20028;-68
2023/12/08 07:00:45;;;;;;;3.40;1.27;;;;;;;17.90;36.44;100467.91;5050013;28;20381;-69
2023/12/08 07:03:10;;;;;;;3.27;1.40;;;;;;;17.97;36.49;100482.22;5049840;28;20484;-69
2023/12/08 07:05:36;;;;;;;2.78;1.40;;;;;;;17.94;36.35;100472.78;5049315;28;20316;-68
2023/12/08 07:08:01;;;;;;;3.20;1.48;;;;;;;17.91;36.66;100462.50;5046746;28;20047;-68
2023/12/08 07:10:26;;;;;;;2.85;1.23;;;;;;;17.99;36.46;100464.50;5049425;28;20037;-69
2023/12/08 07:12:51;;;;;;;2.55;1.30;;;;;;;17.94;36.50;100459.63;5049623;28;20065;-70
2023/12/08 07:15:17;;;;;;;3.07;1.47;;;;;;;17.97;36.50;100460.31;5049254;28;20024;-70
2023/12/08 07:17:42;;;;;;;3.00;1.50;;;;;;;18.07;36.66;100474.34;5048668;28;20258;-69
2023/12/08 07:20:09;;;;;;;3.10;1.42;;;;;;;18.09;36.94;100480.34;5049027;28;20044;-68
2023/12/08 07:22:35;;;;;;;4.38;1.60;;;;;;;18.14;36.85;100475.50;5049144;28;20029;-69
2023/12/08 07:25:01;;;;;;;2.92;1.30;;;;;;;18.15;37.21;100473.69;5049051;28;20484;-71
2023/12/08 07:27:26;;;;;;;3.25;1.55;;;;;;;18.07;37.36;100462.03;5049354;28;20102;-68
2023/12/08 07:29:52;;;;;;;3.55;1.65;;;;;;;18.17;37.42;100487.59;5047504;28;20432;-69
2023/12/08 07:32:17;;;;;;;2.83;1.30;;;;;;;18.14;37.67;100486.03;5048881;28;20028;-69
2023/12/08 07:34:42;;;;;;;2.50;1.20;;;;;;;18.15;37.63;100484.22;5048695;28;20091;-68
2023/12/08 07:37:07;;;;;;;2.88;1.50;;;;;;;18.10;37.69;100479.34;5048292;28;20071;-68
2023/12/08 07:39:33;;;;;;;3.08;1.30;;;;;;;18.13;37.95;100489.66;5048107;28;20355;-69
2023/12/08 07:41:58;;;;;;;3.47;1.35;;;;;;;18.13;37.99;100489.66;5048446;28;20036;-71
2023/12/08 07:44:24;;;;;;;2.88;1.42;;;;;;;18.20;37.98;100509.25;5048666;28;20036;-68
2023/12/08 07:46:49;;;;;;;2.78;1.45;;;;;;;18.23;37.96;100513.41;5049102;28;20099;-69
2023/12/08 07:49:14;;;;;;;4.40;1.75;;;;;;;18.24;37.95;100515.91;5047662;28;20055;-70
2023/12/08 07:51:40;;;;;;;3.10;1.50;;;;;;;18.23;38.09;100516.91;5048423;28;20021;-69
2023/12/08 07:54:05;;;;;;;2.40;1.20;;;;;;;18.22;38.23;100512.59;5048281;28;20048;-70
2023/12/08 07:56:30;;;;;;;2.63;1.30;;;;;;;18.18;38.29;100508.53;5048197;28;21150;-71
2023/12/08 07:58:56;;;;;;;3.30;1.50;;;;;;;18.26;38.34;100518.41;5048026;28;20029;-69
2023/12/08 08:01:21;;;;;;;3.13;1.40;;;;;;;18.25;38.36;100516.78;5048484;28;20474;-70
2023/12/08 08:03:47;;;;;;;3.25;1.23;;;;;;;18.20;38.36;100513.69;5048028;28;20085;-71
2023/12/08 08:06:12;;;;;;;2.72;1.20;;;;;;;18.20;38.59;100498.72;5047752;28;20110;-68
2023/12/08 08:08:38;;;;;;;2.70;1.35;;;;;;;18.24;38.29;100513.28;5048169;28;20466;-70
2023/12/08 08:11:04;;;;;;;4.13;1.50;;;;;;;18.28;38.47;100517.34;5048015;28;20029;-70
2023/12/08 08:13:29;;;;;;;3.45;1.35;;;;;;;18.17;38.52;100498.16;5047889;28;20040;-72
2023/12/08 08:15:54;;;;;;;3.53;1.52;;;;;;;18.31;38.38;100519.72;5047266;28;20041;-69
2023/12/08 08:18:19;;;;;;;3.05;1.30;;;;;;;18.31;38.26;100514.44;5047581;28;20037;-72
2023/12/08 08:20:45;;;;;;;6.22;1.90;;;;;;;18.31;37.78;100522.34;5047339;28;20041;-69
2023/12/08 08:23:10;;;;;;;3.53;1.67;;;;;;;18.24;38.20;100512.44;5047426;28;20116;-70
2023/12/08 08:25:35;;;;;;;4.93;2.10;;;;;;;18.23;38.17;100503.72;5047155;28;20040;-69
2023/12/08 08:28:00;;;;;;;4.85;1.88;;;;;;;18.19;38.10;100518.13;5047155;28;20488;-70
2023/12/08 08:30:26;;;;;;;3.88;1.58;;;;;;;18.24;38.34;100518.56;5045635;28;20041;-71
2023/12/08 08:32:52;;;;;;;4.20;1.83;;;;;;;18.18;38.34;100512.97;5046853;28;20425;-70
2023/12/08 08:35:17;;;;;;;4.25;1.58;;;;;;;18.24;38.12;100521.19;5047201;28;20493;-71
2023/12/08 08:37:43;;;;;;;4.68;1.60;;;;;;;18.20;38.23;100517.16;5047072;28;20040;-70
2023/12/08 08:40:09;;;;;;;4.05;1.77;;;;;;;18.16;38.05;100517.56;5045905;28;20034;-69
2023/12/08 08:42:36;;;;;;;3.13;1.45;;;;;;;18.22;38.20;100523.13;5047204;28;20083;-71
2023/12/08 08:45:02;;;;;;;3.97;1.50;;;;;;;18.19;38.42;100527.84;5046613;28;20080;-71
2023/12/08 08:47:28;;;;;;;3.83;1.50;;;;;;;18.27;37.95;100543.84;5046659;28;20068;-70
2023/12/08 08:49:53;;;;;;;3.25;1.50;;;;;;;18.12;37.92;100523.09;5046836;28;20052;-71
2023/12/08 08:52:19;;;;;;;3.60;1.73;;;;;;;18.26;38.04;100545.66;5046382;28;20033;-69
2023/12/08 08:54:45;;;;;;;4.43;1.83;;;;;;;18.17;38.07;100537.72;5046317;28;20021;-71
2023/12/08 08:57:12;;;;;;;3.80;1.67;;;;;;;18.28;37.91;100551.63;5046525;28;20163;-69
2023/12/08 08:59:37;;;;;;;4.75;1.92;;;;;;;18.21;37.86;100541.72;5046931;28;20120;-71
2023/12/08 09:02:02;;;;;;;4.10;1.87;;;;;;;18.24;37.78;100544.94;5047748;28;20096;-69
2023/12/08 09:04:28;;;;;;;4.60;1.80;;;;;;;18.25;38.22;100548.44;5046957;28;20269;-71
2023/12/08 09:06:56;;;;;;;5.15;2.00;;;;;;;18.34;38.07;100571.38;5046910;28;20040;-70
2023/12/08 09:09:21;;;;;;;3.83;1.73;;;;;;;18.33;38.26;100569.69;5047178;28;20037;-69
2023/12/08 09:11:46;;;;;;;3.92;1.80;;;;;;;18.34;38.01;100570.53;5045312;28;20086;-70
2023/12/08 09:14:12;;;;;;;4.45;1.60;;;;;;;18.38;38.76;100574.56;5047216;28;21000;-69
2023/12/08 09:16:37;;;;;;;3.63;1.67;;;;;;;18.39;38.74;100569.16;5044266;28;20037;-72
2023/12/08 09:19:03;;;;;;;4.22;1.75;;;;;;;18.40;39.15;100570.81;5045275;28;20192;-71
2023/12/08 09:21:28;;;;;;;4.10;1.70;;;;;;;18.31;38.65;100554.00;5046233;28;20025;-70
2023/12/08 09:23:54;;;;;;;4.50;1.90;;;;;;;18.40;38.60;100562.91;5042110;28;20457;-72
2023/12/08 09:26:19;;;;;;;4.78;2.10;;;;;;;18.45;38.56;100573.91;5044759;28;20094;-72
2023/12/08 09:28:46;;;;;;;4.30;1.80;;;;;;;18.39;38.53;100557.75;5045173;28;20592;-72
2023/12/08 09:31:11;;;;;;;4.00;1.85;;;;;;;18.40;38.59;100557.63;5044279;28;20166;-71
2023/12/08 09:33:37;;;;;;;4.20;2.03;;;;;;;18.46;38.73;100575.56;5045402;28;20127;-71
2023/12/08 09:36:02;;;;;;;3.97;1.95;;;;;;;18.40;38.96;100575.28;5045104;28;20286;-72
2023/12/08 09:38:28;;;;;;;5.32;1.90;;;;;;;18.47;38.98;100586.97;5043856;28;20040;-71
2023/12/08 09:40:54;;;;;;;4.03;2.05;;;;;;;18.38;38.88;100572.75;5045453;28;20059;-72
2023/12/08 09:43:28;;;;;;;4.90;2.15;;;;;;;18.37;38.82;100571.09;5045021;28;20025;-72
2023/12/08 09:46:00;;;;;;;4.18;1.80;;;;;;;18.44;38.82;100582.78;5045024;28;20045;-72
2023/12/08 09:48:28;;;;;;;5.05;2.42;;;;;;;18.45;38.73;100584.47;5045292;28;20040;-73
2023/12/08 09:50:57;;;;;;;4.88;1.98;;;;;;;18.49;38.88;100593.78;5044969;28;20110;-72
2023/12/08 09:53:24;;;;;;;4.10;2.00;;;;;;;18.49;38.97;100593.78;5045116;28;20068;-73
2023/12/08 09:55:53;;;;;;;3.85;1.73;;;;;;;18.40;38.89;100581.38;5043294;28;20478;-73
2023/12/08 09:58:21;;;;;;;3.53;1.58;;;;;;;18.46;38.98;100595.84;5044352;28;20029;-71
2023/12/08 10:00:48;;;;;;;4.65;1.95;;;;;;;18.44;38.81;100593.34;5044879;28;20170;-73
2023/12/08 10:03:14;;;;;;;5.00;1.92;;;;;;;18.46;38.81;100596.69;5045498;28;20037;-72
2023/12/08 10:05:40;;;;;;;4.28;1.77;;;;;;;18.45;39.12;100602.94;5046051;28;20362;-71
2023/12/08 10:08:08;;;;;;;4.40;1.85;;;;;;;18.45;39.24;100597.66;5046203;28;20029;-71
2023/12/08 10:10:34;;;;;;;4.13;1.92;;;;;;;18.45;39.14;100608.22;5046093;28;20060;-72
2023/12/08 10:13:00;;;;;;;4.32;1.60;;;;;;;18.46;39.14;100594.03;5042950;28;20462;-72
2023/12/08 10:15:25;;;;;;;3.67;1.80;;;;;;;18.47;39.14;100592.25;5045497;28;20044;-72
2023/12/08 10:17:51;;;;;;;4.50;2.00;;;;;;;18.37;39.12;100576.34;5046072;28;20051;-72
2023/12/08 10:20:19;;;;;;;5.65;2.15;;;;;;;18.47;38.91;100589.63;5044110;28;20540;-72
2023/12/08 10:22:47;;;;;;;3.67;1.83;;;;;;;18.28;39.29;100556.91;5046285;28;20100;-71
2023/12/08 10:25:18;;;;;;;4.30;1.92;;;;;;;18.44;39.15;100597.78;5045821;28;20043;-71
2023/12/08 10:27:47;;;;;;;4.47;1.90;;;;;;;18.42;39.17;100591.78;5045624;28;20083;-71
2023/12/08 10:30:14;;;;;;;4.53;1.77;;;;;;;18.39;39.44;100595.56;5044980;28;20041;-70
2023/12/08 10:32:40;;;;;;;5.13;2.00;;;;;;;18.38;39.44;100591.22;5045162;28;20430;-71
2023/12/08 10:35:06;;;;;;;5.82;1.90;;;;;;;18.38;39.50;100601.78;5045608;28;20063;-72
2023/12/08 10:37:31;;;;;;;4.13;1.80;;;;;;;18.28;39.45;100588.56;5045765;28;20040;-72
2023/12/08 10:39:58;;;;;;;5.30;2.20;;;;;;;18.28;39.62;100588.56;5045502;28;20024;-71
2023/12/08 10:42:24;;;;;;;4.55;2.00;;;;;;;18.33;39.53;100593.44;5045122;28;20036;-72
2023/12/08 10:44:49;;;;;;;4.47;2.08;;;;;;;18.24;39.67;100586.31;5044728;28;20037;-72
2023/12/08 10:47:17;;;;;;;4.07;1.80;;;;;;;18.31;39.54;100612.03;5045234;28;20029;-72
2023/12/08 10:49:42;;;;;;;4.05;1.70;;;;;;;18.33;39.80;100608.44;5045440;28;20037;-72
2023/12/08 10:52:08;;;;;;;4.72;2.00;;;;;;;18.33;39.88;100606.63;5045480;28;20118;-71
2023/12/08 10:54:33;;;;;;;3.75;1.60;;;;;;;18.26;39.84;100592.28;5045313;28;20024;-71
2023/12/08 10:56:59;;;;;;;4.13;1.90;;;;;;;18.31;39.40;100595.38;5045590;28;20451;-73
2023/12/08 10:59:25;;;;;;;5.85;1.70;;;;;;;18.34;39.47;100581.06;5045100;28;20031;-71
2023/12/08 11:01:54;;;;;;;5.63;2.00;;;;;;;18.34;39.81;100595.13;5044807;28;20547;-70
2023/12/08 11:04:21;;;;;;;3.38;1.52;;;;;;;18.23;39.78;100585.47;5042970;28;20044;-71
2023/12/08 11:07:01;;;;;;;4.15;1.77;;;;;;;18.34;39.94;100604.81;5048240;28;20043;-71
2023/12/08 11:09:28;;;;;;;4.88;2.00;;;;;;;18.27;40.11;100588.69;5047876;28;20025;-72
2023/12/08 11:11:55;;;;;;;5.03;1.85;;;;;;;18.28;40.04;100587.72;5046517;28;20111;-71
2023/12/08 11:14:39;;;;;;;5.60;1.65;;;;;;;18.36;39.86;100614.28;5046568;28;20041;-71
2023/12/08 11:17:13;;;;;;;6.23;2.03;;;;;;;18.34;40.10;100596.91;5048186;28;20044;-71